Time;durP1;ratioP1;P1;durP2;ratioP2;P2;SDS_P1;SDS_P2;PMS_P1;PMS_P2;Temp;Humidity;BMP_temperature;BMP_pressure;BME280_temperature;BME280_humidity;BME280_pressure;Samples;Min_cycle;Max_cycle;Signal;HPM_P1;HPM_P2
2021/01/24 00:02:13;;;;;;;4.30;3.03;;;;;9.90;99225.00;;;;5029442;28;20204;-78
2021/01/24 00:04:40;;;;;;;6.55;3.33;;;;;9.90;99228.00;;;;5028839;28;20192;-78
2021/01/24 00:07:08;;;;;;;5.07;3.03;;;;;9.90;99227.00;;;;5028945;28;20204;-78
2021/01/24 00:09:34;;;;;;;6.30;3.03;;;;;9.90;99232.00;;;;5029622;28;20200;-78
2021/01/24 00:12:01;;;;;;;5.57;3.28;;;;;9.90;99228.00;;;;5029374;28;20605;-78
2021/01/24 00:14:29;;;;;;;4.63;2.92;;;;;9.90;99231.00;;;;5009514;28;20711;-78
2021/01/24 00:16:56;;;;;;;5.22;3.55;;;;;9.90;99236.00;;;;5027299;28;20204;-78
2021/01/24 00:19:22;;;;;;;5.90;3.33;;;;;9.80;99236.00;;;;5029494;28;20196;-78
2021/01/24 00:21:49;;;;;;;4.53;2.72;;;;;9.80;99229.00;;;;5029112;28;20203;-78
2021/01/24 00:24:16;;;;;;;4.35;2.75;;;;;9.80;99230.00;;;;5028498;28;20200;-78
2021/01/24 00:26:42;;;;;;;4.28;2.15;;;;;9.90;99225.00;;;;5029403;28;20227;-78
2021/01/24 00:29:09;;;;;;;4.55;2.70;;;;;9.90;99229.00;;;;5028284;28;20379;-78
2021/01/24 00:31:37;;;;;;;4.93;2.67;;;;;9.90;99228.00;;;;5028744;28;20201;-78
2021/01/24 00:34:04;;;;;;;4.95;2.70;;;;;9.90;99226.00;;;;5028520;28;20598;-78
2021/01/24 00:36:31;;;;;;;4.95;2.45;;;;;9.90;99227.00;;;;5028910;28;20192;-78
2021/01/24 00:38:58;;;;;;;4.88;2.83;;;;;9.90;99233.00;;;;5027712;28;20771;-78
2021/01/24 00:41:24;;;;;;;4.00;2.50;;;;;9.90;99233.00;;;;5028727;28;20204;-78
2021/01/24 00:43:51;;;;;;;4.70;2.50;;;;;9.90;99238.00;;;;5028775;28;20665;-78
2021/01/24 00:46:18;;;;;;;4.63;2.90;;;;;9.90;99237.00;;;;5028353;28;20205;-78
2021/01/24 00:48:45;;;;;;;6.80;3.20;;;;;9.90;99239.00;;;;5028661;28;20608;-78
2021/01/24 00:51:12;;;;;;;4.22;2.65;;;;;9.90;99238.00;;;;5028535;28;20200;-77
2021/01/24 00:53:39;;;;;;;4.15;2.78;;;;;9.90;99253.00;;;;5028011;28;20502;-78
2021/01/24 00:56:06;;;;;;;6.80;3.20;;;;;9.90;99251.00;;;;5027672;28;20208;-78
2021/01/24 00:58:33;;;;;;;5.78;2.67;;;;;9.90;99248.00;;;;5028118;28;20216;-78
2021/01/24 01:00:59;;;;;;;6.53;2.72;;;;;10.00;99254.00;;;;5013676;28;20262;-78
2021/01/24 01:03:26;;;;;;;4.68;3.00;;;;;10.00;99257.00;;;;5016421;28;20197;-78
2021/01/24 01:05:54;;;;;;;6.53;3.17;;;;;10.00;99263.00;;;;5027366;28;20208;-78
2021/01/24 01:08:20;;;;;;;3.95;2.35;;;;;9.90;99268.00;;;;5027694;28;20200;-78
2021/01/24 01:10:47;;;;;;;5.35;2.97;;;;;10.00;99265.00;;;;5027174;28;20208;-78
2021/01/24 01:13:14;;;;;;;4.18;2.65;;;;;10.00;99265.00;;;;5028109;28;20207;-78
2021/01/24 01:15:41;;;;;;;6.40;3.10;;;;;10.00;99261.00;;;;5027107;28;20219;-77
2021/01/24 01:18:07;;;;;;;4.60;2.80;;;;;10.00;99267.00;;;;5027490;28;20715;-78
2021/01/24 01:20:34;;;;;;;4.82;3.00;;;;;10.00;99272.00;;;;5028463;28;20204;-78
2021/01/24 01:23:02;;;;;;;5.88;3.42;;;;;10.00;99271.00;;;;5027234;28;20215;-78
2021/01/24 01:25:28;;;;;;;7.03;3.08;;;;;10.00;99275.00;;;;5027880;28;20211;-78
2021/01/24 01:27:55;;;;;;;5.25;3.17;;;;;9.90;99279.00;;;;5027704;28;20723;-78
2021/01/24 01:30:23;;;;;;;4.95;3.20;;;;;9.90;99274.00;;;;5028079;28;20207;-78
2021/01/24 01:32:49;;;;;;;6.40;3.30;;;;;9.90;99275.00;;;;5027048;28;20347;-78
2021/01/24 01:35:16;;;;;;;5.07;2.90;;;;;9.90;99280.00;;;;5026390;28;20196;-78
2021/01/24 01:37:43;;;;;;;4.57;3.05;;;;;9.90;99290.00;;;;5027247;28;20231;-78
2021/01/24 01:40:11;;;;;;;5.05;2.95;;;;;9.90;99288.00;;;;5026923;28;20581;-78
2021/01/24 01:42:38;;;;;;;5.35;2.88;;;;;9.90;99292.00;;;;5007512;28;20200;-78
2021/01/24 01:45:07;;;;;;;4.90;2.95;;;;;9.90;99284.00;;;;5026941;28;20199;-78
2021/01/24 01:47:34;;;;;;;5.68;3.05;;;;;9.90;99289.00;;;;5028143;28;20712;-78
2021/01/24 01:50:01;;;;;;;5.68;2.67;;;;;9.90;99286.00;;;;5027190;28;20211;-77
2021/01/24 01:52:29;;;;;;;5.68;3.35;;;;;9.90;99290.00;;;;5027887;28;20198;-78
2021/01/24 01:54:57;;;;;;;5.05;3.17;;;;;9.80;99292.00;;;;5026996;28;20211;-78
2021/01/24 01:57:26;;;;;;;7.20;3.28;;;;;9.80;99296.00;;;;5026949;28;20204;-78
2021/01/24 01:59:53;;;;;;;4.90;3.10;;;;;9.80;99293.00;;;;5027095;28;20200;-78
2021/01/24 02:02:30;;;;;;;6.20;3.08;;;;;9.70;99292.00;;;;5027395;28;20215;-78
2021/01/24 02:05:02;;;;;;;6.03;3.15;;;;;9.70;99293.00;;;;5027588;28;20228;-78
2021/01/24 02:07:36;;;;;;;3.88;2.70;;;;;9.80;99292.00;;;;5027919;28;20235;-78
2021/01/24 02:10:10;;;;;;;4.88;3.20;;;;;9.70;99293.00;;;;5026248;28;20196;-78
2021/01/24 02:12:48;;;;;;;4.07;2.70;;;;;9.70;99291.00;;;;5027901;28;20620;-78
2021/01/24 02:15:18;;;;;;;5.13;2.90;;;;;9.70;99299.00;;;;5021560;28;20781;-78
2021/01/24 02:17:50;;;;;;;4.30;2.60;;;;;9.70;99292.00;;;;5027297;28;20223;-78
2021/01/24 02:20:23;;;;;;;5.47;2.80;;;;;9.70;99299.00;;;;5008171;28;20204;-78
2021/01/24 02:22:53;;;;;;;6.10;3.40;;;;;9.70;99305.00;;;;5024254;28;20235;-78
2021/01/24 02:25:30;;;;;;;5.72;3.20;;;;;9.70;99310.00;;;;5027686;28;20212;-78
2021/01/24 02:28:06;;;;;;;5.97;3.45;;;;;9.70;99310.00;;;;5026460;28;20293;-78
2021/01/24 02:30:37;;;;;;;4.10;2.83;;;;;9.70;99313.00;;;;5027948;28;20211;-78
2021/01/24 02:33:07;;;;;;;5.00;2.88;;;;;9.70;99308.00;;;;5026617;28;20228;-77
2021/01/24 02:35:39;;;;;;;4.47;2.67;;;;;9.70;99320.00;;;;5027402;28;20677;-78
2021/01/24 02:38:07;;;;;;;6.95;3.25;;;;;9.70;99321.00;;;;5027276;28;20229;-78
2021/01/24 02:40:37;;;;;;;5.03;3.03;;;;;9.70;99323.00;;;;5027251;28;20201;-78
2021/01/24 02:43:07;;;;;;;5.95;3.28;;;;;9.70;99327.00;;;;5025977;28;20705;-78
2021/01/24 02:45:39;;;;;;;6.00;3.00;;;;;9.70;99332.00;;;;5027176;28;20238;-78
2021/01/24 02:48:08;;;;;;;5.97;3.08;;;;;9.70;99339.00;;;;5026945;28;20262;-78
2021/01/24 02:50:36;;;;;;;5.72;2.58;;;;;9.70;99344.00;;;;5027174;28;20204;-78
2021/01/24 02:53:05;;;;;;;5.93;3.53;;;;;9.70;99344.00;;;;5027711;28;20200;-78
2021/01/24 02:55:32;;;;;;;4.13;2.60;;;;;9.70;99344.00;;;;5028329;28;20205;-78
2021/01/24 02:57:59;;;;;;;7.15;3.63;;;;;9.70;99343.00;;;;5031618;28;20224;-78
2021/01/24 03:00:27;;;;;;;4.93;3.03;;;;;9.70;99347.00;;;;5030232;28;20216;-78
2021/01/24 03:02:55;;;;;;;4.70;2.63;;;;;9.70;99355.00;;;;5030528;28;20200;-78
2021/01/24 03:05:21;;;;;;;4.22;2.80;;;;;9.70;99358.00;;;;5029858;28;20200;-78
2021/01/24 03:07:49;;;;;;;4.97;3.08;;;;;9.70;99355.00;;;;5030731;28;20573;-78
2021/01/24 03:10:16;;;;;;;6.38;3.50;;;;;9.70;99353.00;;;;5011397;28;20205;-78
2021/01/24 03:12:50;;;;;;;4.32;3.08;;;;;9.70;99360.00;;;;5011171;28;20244;-77
2021/01/24 03:15:20;;;;;;;6.05;3.72;;;;;9.70;99364.00;;;;5029603;28;20270;-78
2021/01/24 03:17:49;;;;;;;4.20;2.67;;;;;9.70;99362.00;;;;5030671;28;20220;-77
2021/01/24 03:20:19;;;;;;;5.63;3.20;;;;;9.70;99371.00;;;;5031192;28;20220;-78
2021/01/24 03:22:47;;;;;;;4.70;3.20;;;;;9.70;99366.00;;;;5029924;28;20211;-78
2021/01/24 03:25:15;;;;;;;4.05;2.63;;;;;9.70;99370.00;;;;5030170;28;20203;-78
2021/01/24 03:27:43;;;;;;;4.43;2.90;;;;;9.70;99383.00;;;;5030062;28;20196;-78
2021/01/24 03:30:12;;;;;;;5.90;3.10;;;;;9.60;99382.00;;;;5029863;28;20199;-78
2021/01/24 03:32:40;;;;;;;5.10;3.33;;;;;9.60;99384.00;;;;5029952;28;20197;-78
2021/01/24 03:35:07;;;;;;;5.10;2.75;;;;;9.60;99391.00;;;;5030174;28;20662;-78
2021/01/24 03:37:35;;;;;;;5.60;3.08;;;;;9.60;99394.00;;;;5030467;28;20212;-78
2021/01/24 03:40:02;;;;;;;4.90;2.78;;;;;9.60;99391.00;;;;5029409;28;20204;-78
2021/01/24 03:42:29;;;;;;;5.65;3.28;;;;;9.60;99398.00;;;;5030349;28;20203;-77
2021/01/24 03:44:56;;;;;;;4.82;2.90;;;;;9.60;99399.00;;;;5030255;28;20196;-78
2021/01/24 03:47:23;;;;;;;5.93;2.85;;;;;9.60;99397.00;;;;5029936;28;20780;-78
2021/01/24 03:49:50;;;;;;;4.63;3.13;;;;;9.60;99397.00;;;;5030385;28;20208;-77
2021/01/24 03:52:17;;;;;;;5.43;3.03;;;;;9.60;99399.00;;;;5028836;28;20228;-78
2021/01/24 03:54:44;;;;;;;4.57;3.17;;;;;9.60;99404.00;;;;5030548;28;20202;-78
2021/01/24 03:57:11;;;;;;;5.18;2.72;;;;;9.60;99403.00;;;;5029496;28;20204;-78
2021/01/24 03:59:38;;;;;;;4.95;3.33;;;;;9.60;99407.00;;;;5029028;28;20720;-78
2021/01/24 04:02:04;;;;;;;6.38;3.30;;;;;9.50;99402.00;;;;5025011;28;20254;-78
2021/01/24 04:04:31;;;;;;;3.20;2.35;;;;;9.50;99413.00;;;;5029254;28;20246;-78
2021/01/24 04:06:58;;;;;;;6.20;3.00;;;;;9.50;99410.00;;;;5029342;28;20720;-78
2021/01/24 04:09:24;;;;;;;4.75;3.10;;;;;9.50;99411.00;;;;5030101;28;20227;-78
2021/01/24 04:11:52;;;;;;;4.82;2.67;;;;;9.50;99409.00;;;;5029773;28;20196;-78
2021/01/24 04:14:19;;;;;;;5.13;3.13;;;;;9.50;99419.00;;;;5028637;28;20228;-78
2021/01/24 04:16:45;;;;;;;4.32;2.33;;;;;9.50;99414.00;;;;5029150;28;20185;-78
2021/01/24 04:19:12;;;;;;;4.60;2.95;;;;;9.50;99415.00;;;;5029353;28;20281;-78
2021/01/24 04:21:39;;;;;;;4.25;2.33;;;;;9.50;99421.00;;;;5029374;28;20197;-78
2021/01/24 04:24:07;;;;;;;4.63;2.50;;;;;9.50;99423.00;;;;5029255;28;20262;-78
2021/01/24 04:26:33;;;;;;;5.18;2.53;;;;;9.50;99429.00;;;;5029371;28;20250;-78
2021/01/24 04:29:01;;;;;;;4.40;3.08;;;;;9.50;99432.00;;;;5029218;28;20678;-78
2021/01/24 04:31:28;;;;;;;4.75;2.78;;;;;9.50;99434.00;;;;5029146;28;20279;-78
2021/01/24 04:33:55;;;;;;;4.93;2.80;;;;;9.50;99426.00;;;;5029311;28;20223;-78
2021/01/24 04:36:21;;;;;;;3.88;2.38;;;;;9.50;99434.00;;;;5029064;28;20254;-78
2021/01/24 04:38:48;;;;;;;4.50;2.63;;;;;9.50;99436.00;;;;5028389;28;21021;-78
2021/01/24 04:41:15;;;;;;;6.53;2.90;;;;;9.50;99444.00;;;;5028812;28;20447;-78
2021/01/24 04:43:42;;;;;;;5.32;2.85;;;;;9.50;99452.00;;;;5028409;28;20196;-78
2021/01/24 04:46:10;;;;;;;4.38;2.83;;;;;9.40;99444.00;;;;5029005;28;20619;-78
2021/01/24 04:48:37;;;;;;;4.70;2.72;;;;;9.50;99448.00;;;;5029072;28;20208;-78
2021/01/24 04:51:05;;;;;;;4.70;2.53;;;;;9.40;99445.00;;;;5028625;28;20728;-77
2021/01/24 04:53:33;;;;;;;3.35;2.10;;;;;9.40;99445.00;;;;5029161;28;20188;-78
2021/01/24 04:56:01;;;;;;;3.33;2.38;;;;;9.40;99448.00;;;;5027828;28;20205;-78
2021/01/24 04:58:28;;;;;;;3.17;2.00;;;;;9.40;99460.00;;;;5029349;28;20231;-78
2021/01/24 05:00:56;;;;;;;4.13;2.55;;;;;9.40;99463.00;;;;5027742;28;20220;-78
2021/01/24 05:03:23;;;;;;;4.93;2.13;;;;;9.30;99456.00;;;;5028832;28;20203;-78
2021/01/24 05:05:50;;;;;;;5.63;2.30;;;;;9.30;99458.00;;;;5028038;28;20203;-78
2021/01/24 05:08:17;;;;;;;3.42;2.20;;;;;9.30;99462.00;;;;5028549;28;20192;-77
2021/01/24 05:10:46;;;;;;;3.03;1.85;;;;;9.30;99459.00;;;;5028328;28;20196;-77
2021/01/24 05:13:24;;;;;;;4.00;1.83;;;;;9.30;99466.00;;;;5027691;28;20207;-77
2021/01/24 05:15:51;;;;;;;3.42;2.05;;;;;9.20;99457.00;;;;5027664;28;20231;-78
2021/01/24 05:18:22;;;;;;;5.10;1.70;;;;;9.20;99455.00;;;;5026996;28;20227;-77
2021/01/24 05:20:51;;;;;;;4.60;1.70;;;;;9.20;99457.00;;;;5027891;28;20192;-77
2021/01/24 05:23:20;;;;;;;1.98;1.55;;;;;9.20;99468.00;;;;5027442;28;20674;-78
2021/01/24 05:25:48;;;;;;;2.33;1.63;;;;;9.20;99465.00;;;;5015884;28;20227;-77
2021/01/24 05:28:20;;;;;;;2.55;1.60;;;;;9.10;99461.00;;;;5009742;28;20197;-78
2021/01/24 05:30:47;;;;;;;2.08;1.50;;;;;9.20;99461.00;;;;5028288;28;20673;-78
2021/01/24 05:33:17;;;;;;;2.50;1.48;;;;;9.20;99459.00;;;;5027567;28;20228;-78
2021/01/24 05:35:49;;;;;;;1.92;1.25;;;;;9.20;99458.00;;;;5027093;28;20238;-78
2021/01/24 05:38:24;;;;;;;2.55;1.33;;;;;9.10;99460.00;;;;5027463;28;20701;-78
2021/01/24 05:40:51;;;;;;;4.00;1.80;;;;;9.20;99468.00;;;;5027537;28;20203;-78
2021/01/24 05:43:18;;;;;;;1.98;1.20;;;;;9.20;99473.00;;;;5027075;28;20204;-78
2021/01/24 05:45:49;;;;;;;4.95;1.73;;;;;9.20;99466.00;;;;5027016;28;20196;-78
2021/01/24 05:48:16;;;;;;;2.03;1.48;;;;;9.10;99470.00;;;;5023333;28;20682;-77
2021/01/24 05:50:45;;;;;;;3.17;1.60;;;;;9.10;99477.00;;;;5026400;28;20184;-77
2021/01/24 05:53:14;;;;;;;2.05;1.17;;;;;9.10;99487.00;;;;5025659;28;20689;-78
2021/01/24 05:55:43;;;;;;;1.77;1.17;;;;;9.10;99489.00;;;;5026922;28;20615;-77
2021/01/24 05:58:19;;;;;;;2.53;1.05;;;;;9.00;99489.00;;;;5025539;28;20227;-77
2021/01/24 06:00:47;;;;;;;1.83;1.08;;;;;9.00;99499.00;;;;5023234;28;20200;-77
2021/01/24 06:03:15;;;;;;;3.20;0.85;;;;;9.00;99504.00;;;;5025114;28;20658;-77
2021/01/24 06:05:42;;;;;;;2.33;1.52;;;;;9.00;99507.00;;;;5026636;28;20197;-78
2021/01/24 06:08:10;;;;;;;1.55;1.00;;;;;8.90;99513.00;;;;5024242;28;20204;-78
2021/01/24 06:10:38;;;;;;;1.92;1.13;;;;;8.90;99516.00;;;;5026818;28;20210;-78
2021/01/24 06:13:05;;;;;;;1.30;0.90;;;;;8.90;99515.00;;;;5026622;28;20207;-78
2021/01/24 06:15:34;;;;;;;1.67;1.23;;;;;8.90;99521.00;;;;5027170;28;20208;-77
2021/01/24 06:18:03;;;;;;;1.65;1.00;;;;;8.80;99526.00;;;;5025072;28;20239;-77
2021/01/24 06:20:38;;;;;;;1.85;0.90;;;;;8.80;99540.00;;;;5026634;28;20666;-78
2021/01/24 06:23:09;;;;;;;1.77;1.05;;;;;8.80;99533.00;;;;5026906;28;20200;-77
2021/01/24 06:25:42;;;;;;;1.33;0.77;;;;;8.70;99541.00;;;;5022635;28;20200;-78
2021/01/24 06:28:14;;;;;;;1.67;0.88;;;;;8.70;99533.00;;;;5027552;28;20219;-78
2021/01/24 06:30:45;;;;;;;1.08;0.55;;;;;8.70;99536.00;;;;5029180;28;20198;-77
2021/01/24 06:33:16;;;;;;;1.20;0.80;;;;;8.70;99535.00;;;;5031205;28;20227;-77
2021/01/24 06:35:51;;;;;;;2.35;0.80;;;;;8.60;99542.00;;;;5030696;28;20678;-77
2021/01/24 06:38:29;;;;;;;1.23;0.60;;;;;8.60;99544.00;;;;5030568;28;20904;-77
2021/01/24 06:40:57;;;;;;;1.17;0.65;;;;;8.60;99550.00;;;;5029688;28;20196;-77
2021/01/24 06:43:40;;;;;;;1.67;0.93;;;;;8.50;99554.00;;;;5031012;28;20197;-78
2021/01/24 06:46:08;;;;;;;1.05;0.60;;;;;8.60;99565.00;;;;5032061;28;20196;-77
2021/01/24 06:48:47;;;;;;;1.77;0.90;;;;;8.50;99555.00;;;;5030825;28;20196;-77
2021/01/24 06:51:34;;;;;;;1.88;0.80;;;;;8.40;99556.00;;;;5028405;28;20188;-77
2021/01/24 06:54:01;;;;;;;0.85;0.60;;;;;8.50;99561.00;;;;5030173;28;20200;-78
2021/01/24 06:56:39;;;;;;;1.75;0.70;;;;;8.40;99567.00;;;;5030272;28;20198;-77
2021/01/24 06:59:07;;;;;;;1.23;0.80;;;;;8.50;99572.00;;;;5030777;28;20297;-77
2021/01/24 07:01:34;;;;;;;0.90;0.60;;;;;8.40;99576.00;;;;5030247;28;20199;-77
2021/01/24 07:04:30;;;;;;;1.15;0.80;;;;;8.30;99578.00;;;;5029655;28;20274;-77
2021/01/24 07:06:58;;;;;;;0.98;0.60;;;;;8.40;99585.00;;;;5029430;28;20785;-77
2021/01/24 07:09:42;;;;;;;0.80;0.52;;;;;8.30;99592.00;;;;5028488;28;20204;-77
2021/01/24 07:12:10;;;;;;;1.23;0.60;;;;;8.30;99595.00;;;;5029960;28;20204;-78
2021/01/24 07:14:51;;;;;;;1.02;0.60;;;;;8.20;99610.00;;;;5029844;28;20212;-77
2021/01/24 07:17:19;;;;;;;5.15;1.10;;;;;8.20;99610.00;;;;5029329;28;20211;-78
2021/01/24 07:19:47;;;;;;;2.42;0.70;;;;;8.20;99616.00;;;;5030479;28;20218;-77
2021/01/24 07:22:15;;;;;;;0.95;0.50;;;;;8.20;99618.00;;;;5030276;28;20196;-77
2021/01/24 07:24:44;;;;;;;0.85;0.40;;;;;8.20;99621.00;;;;5028639;28;20291;-77
2021/01/24 07:27:13;;;;;;;0.50;0.40;;;;;8.10;99623.00;;;;5028851;28;20204;-77
2021/01/24 07:29:40;;;;;;;0.95;0.40;;;;;8.10;99625.00;;;;5030659;28;20216;-77
2021/01/24 07:32:08;;;;;;;0.77;0.50;;;;;8.10;99638.00;;;;5027227;28;20193;-77
2021/01/24 07:34:35;;;;;;;1.75;0.60;;;;;8.00;99627.00;;;;5029726;28;20224;-78
2021/01/24 07:37:04;;;;;;;2.63;0.50;;;;;8.00;99635.00;;;;5029487;28;20215;-78
2021/01/24 07:39:31;;;;;;;0.63;0.50;;;;;8.00;99646.00;;;;5029749;28;20594;-78
2021/01/24 07:41:57;;;;;;;0.70;0.40;;;;;8.00;99646.00;;;;5029058;28;20714;-78
2021/01/24 07:44:26;;;;;;;0.77;0.40;;;;;7.90;99644.00;;;;5030282;28;20256;-77
2021/01/24 07:46:52;;;;;;;0.93;0.38;;;;;7.90;99647.00;;;;5026897;28;20196;-77
2021/01/24 07:49:19;;;;;;;0.77;0.50;;;;;7.90;99648.00;;;;5023412;28;20207;-77
2021/01/24 07:51:47;;;;;;;0.50;0.30;;;;;7.90;99643.00;;;;5027713;28;20203;-77
2021/01/24 07:54:15;;;;;;;1.27;0.30;;;;;7.90;99646.00;;;;5025214;28;20235;-77
2021/01/24 07:56:42;;;;;;;1.13;0.40;;;;;7.80;99650.00;;;;5026232;28;20200;-77
2021/01/24 07:59:09;;;;;;;0.70;0.40;;;;;7.80;99664.00;;;;5029599;28;20709;-78
2021/01/24 08:01:38;;;;;;;0.68;0.40;;;;;7.80;99653.00;;;;5028566;28;20209;-77
2021/01/24 08:04:06;;;;;;;1.58;0.57;;;;;7.80;99665.00;;;;5029747;28;20747;-77
2021/01/24 08:06:33;;;;;;;1.25;0.60;;;;;7.80;99666.00;;;;5030494;28;20262;-77
2021/01/24 08:09:01;;;;;;;0.68;0.38;;;;;7.70;99672.00;;;;5027870;28;20227;-78
2021/01/24 08:11:29;;;;;;;0.90;0.47;;;;;7.70;99663.00;;;;5024424;28;20196;-78
2021/01/24 08:13:56;;;;;;;0.50;0.40;;;;;7.70;99657.00;;;;5035015;28;20224;-78
2021/01/24 08:16:27;;;;;;;0.70;0.40;;;;;7.70;99668.00;;;;5030209;28;20204;-78
2021/01/24 08:18:56;;;;;;;0.63;0.38;;;;;7.70;99674.00;;;;5029758;28;20270;-77
2021/01/24 08:21:25;;;;;;;0.93;0.50;;;;;7.60;99673.00;;;;5029377;28;20309;-78
2021/01/24 08:23:53;;;;;;;2.05;0.63;;;;;7.60;99681.00;;;;5026789;28;20283;-78
2021/01/24 08:26:21;;;;;;;0.93;0.50;;;;;7.60;99683.00;;;;5021697;28;20239;-78
2021/01/24 08:28:49;;;;;;;1.10;0.32;;;;;7.60;99680.00;;;;5027964;28;20200;-78
2021/01/24 08:31:20;;;;;;;1.40;0.50;;;;;7.60;99680.00;;;;5029378;28;20656;-77
2021/01/24 08:33:48;;;;;;;0.55;0.40;;;;;7.60;99674.00;;;;5029739;28;20232;-77
2021/01/24 08:36:20;;;;;;;1.10;0.50;;;;;7.60;99679.00;;;;5029392;28;20768;-78
2021/01/24 08:38:48;;;;;;;2.00;0.40;;;;;7.60;99681.00;;;;5029297;28;20235;-78
2021/01/24 08:41:16;;;;;;;0.40;0.20;;;;;7.60;99695.00;;;;5029117;28;20200;-78
2021/01/24 08:43:43;;;;;;;0.50;0.38;;;;;7.60;99696.00;;;;5028914;28;20204;-79
2021/01/24 08:46:21;;;;;;;0.75;0.40;;;;;7.60;99709.00;;;;5027765;28;20696;-79
2021/01/24 08:49:02;;;;;;;0.90;0.40;;;;;7.60;99703.00;;;;5027871;28;20216;-79
2021/01/24 08:51:47;;;;;;;0.70;0.40;;;;;7.60;99704.00;;;;5023054;28;20976;-79
2021/01/24 08:54:22;;;;;;;0.80;0.50;;;;;7.70;99704.00;;;;5024455;28;20196;-79
2021/01/24 08:56:49;;;;;;;1.48;0.60;;;;;7.80;99716.00;;;;5028321;28;20696;-80
2021/01/24 08:59:17;;;;;;;1.02;0.32;;;;;7.80;99713.00;;;;5027157;28;20224;-80
2021/01/24 09:01:45;;;;;;;0.77;0.47;;;;;7.90;99708.00;;;;5027109;28;20196;-80
2021/01/24 09:04:22;;;;;;;0.68;0.30;;;;;7.90;99721.00;;;;5020080;28;20220;-79
2021/01/24 09:07:11;;;;;;;1.20;0.70;;;;;7.90;99722.00;;;;5028764;28;20273;-79
2021/01/24 09:09:42;;;;;;;0.98;0.47;;;;;8.10;99724.00;;;;5028530;28;20212;-79
2021/01/24 09:12:10;;;;;;;1.17;0.60;;;;;8.20;99728.00;;;;5027621;28;20235;-78
2021/01/24 09:14:37;;;;;;;0.60;0.40;;;;;8.20;99716.00;;;;5028336;28;20247;-78
2021/01/24 09:17:07;;;;;;;1.27;0.43;;;;;8.30;99721.00;;;;5019044;28;20197;-78
2021/01/24 09:19:34;;;;;;;2.85;0.40;;;;;8.30;99717.00;;;;5023919;28;20701;-78
2021/01/24 09:22:02;;;;;;;0.80;0.30;;;;;8.30;99725.00;;;;5028131;28;20219;-79
2021/01/24 09:24:30;;;;;;;1.10;0.38;;;;;8.40;99738.00;;;;5028779;28;20250;-79
2021/01/24 09:26:57;;;;;;;0.90;0.45;;;;;8.40;99738.00;;;;5027950;28;20221;-79
2021/01/24 09:29:24;;;;;;;0.30;0.30;;;;;8.40;99748.00;;;;5028469;28;20203;-78
2021/01/24 09:31:50;;;;;;;1.38;0.52;;;;;8.40;99746.00;;;;5027423;28;20207;-78
2021/01/24 09:34:17;;;;;;;1.02;0.70;;;;;8.50;99748.00;;;;5027755;28;20228;-81
2021/01/24 09:36:44;;;;;;;1.05;0.60;;;;;8.50;99757.00;;;;5027949;28;20208;-81
2021/01/24 09:39:11;;;;;;;1.02;0.60;;;;;8.60;99754.00;;;;5026637;28;20224;-80
2021/01/24 09:41:38;;;;;;;1.35;0.47;;;;;8.60;99762.00;;;;5027737;28;20666;-79
2021/01/24 09:44:06;;;;;;;2.83;0.70;;;;;8.60;99753.00;;;;5026030;28;20204;-80
2021/01/24 09:46:33;;;;;;;1.85;0.50;;;;;8.70;99761.00;;;;5016805;28;20208;-79
2021/01/24 09:49:00;;;;;;;1.00;0.52;;;;;8.70;99755.00;;;;5028068;28;20972;-79
2021/01/24 09:51:27;;;;;;;1.13;0.60;;;;;8.70;99754.00;;;;5027724;28;20201;-79
2021/01/24 09:53:56;;;;;;;1.08;0.45;;;;;8.70;99750.00;;;;5028254;28;20208;-80
2021/01/24 09:56:24;;;;;;;0.75;0.30;;;;;8.70;99761.00;;;;5027389;28;20204;-79
2021/01/24 09:58:52;;;;;;;0.73;0.30;;;;;8.80;99760.00;;;;5027830;28;20226;-79
2021/01/24 10:01:19;;;;;;;2.30;0.32;;;;;8.80;99756.00;;;;5024055;28;20563;-80
2021/01/24 10:03:46;;;;;;;1.23;0.55;;;;;8.90;99765.00;;;;5027109;28;20545;-79
2021/01/24 10:06:14;;;;;;;0.65;0.38;;;;;8.90;99768.00;;;;5031488;28;20197;-80
2021/01/24 10:08:41;;;;;;;0.65;0.40;;;;;9.00;99768.00;;;;5031783;28;20192;-79
2021/01/24 10:11:08;;;;;;;2.50;0.38;;;;;9.00;99777.00;;;;5031746;28;20701;-79
2021/01/24 10:13:35;;;;;;;2.05;0.40;;;;;9.00;99772.00;;;;5031513;28;20207;-79
2021/01/24 10:16:03;;;;;;;2.30;0.50;;;;;9.10;99780.00;;;;5030805;28;20223;-82
2021/01/24 10:18:29;;;;;;;1.73;0.47;;;;;9.10;99775.00;;;;5031344;28;20716;-79
2021/01/24 10:20:56;;;;;;;1.55;0.30;;;;;9.20;99782.00;;;;5031424;28;20573;-80
2021/01/24 10:23:23;;;;;;;0.47;0.30;;;;;9.20;99786.00;;;;5019510;28;20196;-80
2021/01/24 10:25:52;;;;;;;3.38;0.50;;;;;9.30;99776.00;;;;5030718;28;20200;-80
2021/01/24 10:28:19;;;;;;;2.00;0.40;;;;;9.40;99779.00;;;;5031263;28;20200;-80
2021/01/24 10:30:47;;;;;;;1.38;0.70;;;;;9.40;99771.00;;;;5030635;28;20192;-81
2021/01/24 10:33:15;;;;;;;0.60;0.30;;;;;9.50;99771.00;;;;5027214;28;20231;-80
2021/01/24 10:35:43;;;;;;;2.65;0.70;;;;;9.50;99773.00;;;;5031292;28;20196;-81
2021/01/24 10:38:09;;;;;;;0.80;0.50;;;;;9.60;99778.00;;;;5031045;28;20191;-81
2021/01/24 10:40:37;;;;;;;2.38;0.60;;;;;9.70;99769.00;;;;5031067;28;20212;-80
2021/01/24 10:43:04;;;;;;;0.52;0.30;;;;;9.80;99773.00;;;;5030354;28;20200;-80
2021/01/24 10:45:32;;;;;;;1.65;0.60;;;;;9.80;99777.00;;;;5030490;28;20259;-80
2021/01/24 10:47:59;;;;;;;1.08;0.35;;;;;9.90;99779.00;;;;5028525;28;20200;-80
2021/01/24 10:50:27;;;;;;;0.70;0.40;;;;;9.90;99773.00;;;;5030765;28;20223;-80
2021/01/24 10:52:54;;;;;;;1.83;0.55;;;;;10.00;99788.00;;;;5029148;28;20203;-80
2021/01/24 10:55:21;;;;;;;4.40;0.63;;;;;10.00;99782.00;;;;5030093;28;20188;-80
2021/01/24 10:57:48;;;;;;;3.83;0.95;;;;;10.10;99777.00;;;;5030442;28;20290;-80
2021/01/24 11:00:16;;;;;;;1.42;0.57;;;;;10.20;99780.00;;;;5029764;28;20223;-79
2021/01/24 11:02:43;;;;;;;2.72;0.60;;;;;10.20;99771.00;;;;5027158;28;20211;-80
2021/01/24 11:05:10;;;;;;;1.10;0.60;;;;;10.30;99764.00;;;;5028976;28;20201;-80
2021/01/24 11:07:38;;;;;;;1.30;0.50;;;;;10.40;99763.00;;;;5030892;28;20196;-80
2021/01/24 11:10:06;;;;;;;2.75;0.77;;;;;10.40;99760.00;;;;5030081;28;20199;-80
2021/01/24 11:12:33;;;;;;;1.40;0.57;;;;;10.50;99770.00;;;;5029943;28;20211;-80
2021/01/24 11:15:00;;;;;;;2.45;1.05;;;;;10.60;99768.00;;;;5028219;28;20224;-80
2021/01/24 11:17:27;;;;;;;2.00;0.75;;;;;10.70;99764.00;;;;5029818;28;20619;-79
2021/01/24 11:19:54;;;;;;;0.85;0.60;;;;;10.80;99764.00;;;;5029552;28;20239;-79
2021/01/24 11:22:22;;;;;;;2.20;1.00;;;;;10.80;99766.00;;;;5030518;28;20712;-79
2021/01/24 11:24:50;;;;;;;5.50;0.95;;;;;10.90;99761.00;;;;5030637;28;20204;-79
2021/01/24 11:27:17;;;;;;;3.90;0.95;;;;;11.00;99763.00;;;;5029027;28;20727;-79
2021/01/24 11:29:44;;;;;;;1.38;0.85;;;;;11.10;99767.00;;;;5030097;28;20204;-79
2021/01/24 11:32:12;;;;;;;2.22;1.02;;;;;11.20;99768.00;;;;5028186;28;20250;-80
2021/01/24 11:34:40;;;;;;;1.95;1.05;;;;;11.30;99764.00;;;;5029517;28;20231;-81
2021/01/24 11:37:07;;;;;;;7.70;1.65;;;;;11.40;99768.00;;;;5010269;28;20243;-80
2021/01/24 11:39:34;;;;;;;3.05;1.58;;;;;11.40;99769.00;;;;5027441;28;20227;-81
2021/01/24 11:42:02;;;;;;;2.78;1.73;;;;;11.40;99772.00;;;;5029346;28;20600;-80
2021/01/24 11:44:29;;;;;;;2.70;1.50;;;;;11.50;99771.00;;;;5029041;28;20215;-79
2021/01/24 11:46:57;;;;;;;5.20;1.55;;;;;11.50;99764.00;;;;5029142;28;20207;-79
2021/01/24 11:49:23;;;;;;;5.95;2.00;;;;;11.60;99774.00;;;;5029706;28;20550;-79
2021/01/24 11:51:50;;;;;;;4.05;1.85;;;;;11.70;99783.00;;;;5028423;28;20208;-79
2021/01/24 11:54:17;;;;;;;4.10;2.22;;;;;11.70;99783.00;;;;5029749;28;20201;-79
2021/01/24 11:56:44;;;;;;;3.97;2.20;;;;;11.70;99775.00;;;;5027921;28;20201;-79
2021/01/24 11:59:12;;;;;;;2.55;1.67;;;;;11.80;99776.00;;;;5028966;28;20223;-79
2021/01/24 12:01:39;;;;;;;5.57;2.10;;;;;11.90;99773.00;;;;5028423;28;20618;-80
2021/01/24 12:04:06;;;;;;;5.75;2.47;;;;;11.90;99774.00;;;;5028720;28;20203;-79
2021/01/24 12:06:32;;;;;;;5.78;2.50;;;;;12.00;99770.00;;;;5029525;28;20201;-79
2021/01/24 12:08:59;;;;;;;3.45;1.80;;;;;12.10;99775.00;;;;5028927;28;20212;-79
2021/01/24 12:11:26;;;;;;;4.20;2.47;;;;;12.10;99770.00;;;;5029091;28;20262;-80
2021/01/24 12:13:53;;;;;;;4.20;1.95;;;;;12.20;99773.00;;;;5029172;28;20204;-80
2021/01/24 12:16:21;;;;;;;4.78;1.73;;;;;12.20;99768.00;;;;5028031;28;20193;-80
2021/01/24 12:18:48;;;;;;;3.38;1.65;;;;;12.30;99772.00;;;;5028895;28;20690;-81
2021/01/24 12:21:15;;;;;;;4.15;1.23;;;;;12.30;99773.00;;;;5028809;28;20768;-80
2021/01/24 12:23:42;;;;;;;2.92;1.83;;;;;12.40;99773.00;;;;5029424;28;20230;-79
2021/01/24 12:26:09;;;;;;;6.28;1.48;;;;;12.50;99771.00;;;;5028510;28;20227;-79
2021/01/24 12:28:35;;;;;;;2.88;1.40;;;;;12.50;99763.00;;;;5028701;28;20196;-79
2021/01/24 12:31:02;;;;;;;1.75;1.38;;;;;12.50;99763.00;;;;5028576;28;20258;-79
2021/01/24 12:33:30;;;;;;;2.15;1.60;;;;;12.50;99756.00;;;;5028888;28;20223;-80